sensor_id;sensor_type;location;lat;lon;timestamp;P1;durP1;ratioP1;P2;durP2;ratioP2
58756;SDS011;44527;47.460;19.016;2023-02-28T00:00:45;13.35;;;6.05;;
58756;SDS011;44527;47.460;19.016;2023-02-28T00:03:48;11.50;;;5.85;;
58756;SDS011;44527;47.460;19.016;2023-02-28T00:06:51;10.63;;;6.07;;
58756;SDS011;44527;47.460;19.016;2023-02-28T00:09:54;12.20;;;5.95;;
58756;SDS011;44527;47.460;19.016;2023-02-28T00:13:01;11.05;;;5.60;;
58756;SDS011;44527;47.460;19.016;2023-02-28T00:16:07;9.02;;;4.95;;
58756;SDS011;44527;47.460;19.016;2023-02-28T00:19:12;14.20;;;5.68;;
58756;SDS011;44527;47.460;19.016;2023-02-28T00:22:16;18.65;;;6.40;;
58756;SDS011;44527;47.460;19.016;2023-02-28T00:25:22;13.43;;;5.93;;
58756;SDS011;44527;47.460;19.016;2023-02-28T00:28:26;13.52;;;6.57;;
58756;SDS011;44527;47.460;19.016;2023-02-28T00:31:29;13.10;;;5.72;;
58756;SDS011;44527;47.460;19.016;2023-02-28T00:34:32;11.55;;;5.95;;
58756;SDS011;44527;47.460;19.016;2023-02-28T00:37:39;17.05;;;6.32;;
58756;SDS011;44527;47.460;19.016;2023-02-28T00:40:43;14.52;;;6.43;;
58756;SDS011;44527;47.460;19.016;2023-02-28T00:43:45;12.65;;;6.25;;
58756;SDS011;44527;47.460;19.016;2023-02-28T00:46:48;13.80;;;6.00;;
58756;SDS011;44527;47.460;19.016;2023-02-28T00:49:50;17.83;;;5.75;;
58756;SDS011;44527;47.460;19.016;2023-02-28T00:52:53;12.75;;;5.85;;
58756;SDS011;44527;47.460;19.016;2023-02-28T00:55:55;15.77;;;6.60;;
58756;SDS011;44527;47.460;19.016;2023-02-28T00:59:00;13.10;;;5.53;;
58756;SDS011;44527;47.460;19.016;2023-02-28T01:02:02;11.75;;;6.15;;
58756;SDS011;44527;47.460;19.016;2023-02-28T01:05:05;13.90;;;5.85;;
58756;SDS011;44527;47.460;19.016;2023-02-28T01:08:08;12.80;;;5.82;;
58756;SDS011;44527;47.460;19.016;2023-02-28T01:11:12;12.07;;;5.90;;
58756;SDS011;44527;47.460;19.016;2023-02-28T01:14:17;11.63;;;5.72;;
58756;SDS011;44527;47.460;19.016;2023-02-28T01:17:20;10.90;;;5.35;;
58756;SDS011;44527;47.460;19.016;2023-02-28T01:20:23;11.93;;;5.82;;
58756;SDS011;44527;47.460;19.016;2023-02-28T01:23:26;13.18;;;5.53;;
58756;SDS011;44527;47.460;19.016;2023-02-28T01:26:28;13.55;;;5.85;;
58756;SDS011;44527;47.460;19.016;2023-02-28T01:29:31;14.30;;;6.43;;
58756;SDS011;44527;47.460;19.016;2023-02-28T01:32:34;11.98;;;5.03;;
58756;SDS011;44527;47.460;19.016;2023-02-28T01:35:37;11.38;;;5.05;;
58756;SDS011;44527;47.460;19.016;2023-02-28T01:38:40;13.43;;;5.78;;
58756;SDS011;44527;47.460;19.016;2023-02-28T01:41:43;12.43;;;5.55;;
58756;SDS011;44527;47.460;19.016;2023-02-28T01:48:05;9.23;;;5.35;;
58756;SDS011;44527;47.460;19.016;2023-02-28T01:51:12;12.00;;;5.18;;
58756;SDS011;44527;47.460;19.016;2023-02-28T01:54:26;11.52;;;4.90;;
58756;SDS011;44527;47.460;19.016;2023-02-28T01:57:32;10.88;;;4.85;;
58756;SDS011;44527;47.460;19.016;2023-02-28T02:00:40;13.20;;;5.55;;
58756;SDS011;44527;47.460;19.016;2023-02-28T02:03:44;12.65;;;5.00;;
58756;SDS011;44527;47.460;19.016;2023-02-28T02:06:47;10.80;;;5.20;;
58756;SDS011;44527;47.460;19.016;2023-02-28T02:09:58;11.23;;;5.35;;
58756;SDS011;44527;47.460;19.016;2023-02-28T02:23:49;14.10;;;6.50;;
58756;SDS011;44527;47.460;19.016;2023-02-28T02:27:13;10.40;;;5.22;;
58756;SDS011;44527;47.460;19.016;2023-02-28T02:30:28;13.10;;;5.97;;
58756;SDS011;44527;47.460;19.016;2023-02-28T02:40:43;14.80;;;6.03;;
58756;SDS011;44527;47.460;19.016;2023-02-28T02:44:01;14.25;;;6.43;;
58756;SDS011;44527;47.460;19.016;2023-02-28T02:47:10;11.07;;;5.75;;
58756;SDS011;44527;47.460;19.016;2023-02-28T02:50:20;16.12;;;6.35;;
58756;SDS011;44527;47.460;19.016;2023-02-28T02:53:31;12.50;;;6.12;;
58756;SDS011;44527;47.460;19.016;2023-02-28T02:56:38;14.05;;;5.95;;
58756;SDS011;44527;47.460;19.016;2023-02-28T02:59:44;8.25;;;4.57;;
58756;SDS011;44527;47.460;19.016;2023-02-28T03:02:47;11.90;;;5.22;;
58756;SDS011;44527;47.460;19.016;2023-02-28T03:05:52;18.15;;;6.03;;
58756;SDS011;44527;47.460;19.016;2023-02-28T03:08:56;9.82;;;4.18;;
58756;SDS011;44527;47.460;19.016;2023-02-28T03:11:59;18.55;;;6.55;;
58756;SDS011;44527;47.460;19.016;2023-02-28T03:15:15;19.50;;;6.03;;
58756;SDS011;44527;47.460;19.016;2023-02-28T03:18:40;12.73;;;6.03;;
58756;SDS011;44527;47.460;19.016;2023-02-28T03:25:28;14.48;;;5.35;;
58756;SDS011;44527;47.460;19.016;2023-02-28T03:32:08;14.30;;;5.05;;
58756;SDS011;44527;47.460;19.016;2023-02-28T03:35:26;12.68;;;5.60;;
58756;SDS011;44527;47.460;19.016;2023-02-28T03:38:34;12.10;;;6.12;;
58756;SDS011;44527;47.460;19.016;2023-02-28T03:41:57;11.48;;;5.55;;
58756;SDS011;44527;47.460;19.016;2023-02-28T03:45:22;10.90;;;6.07;;
58756;SDS011;44527;47.460;19.016;2023-02-28T03:48:33;12.43;;;6.10;;
58756;SDS011;44527;47.460;19.016;2023-02-28T03:51:43;14.02;;;5.68;;
58756;SDS011;44527;47.460;19.016;2023-02-28T03:54:51;18.00;;;6.68;;
58756;SDS011;44527;47.460;19.016;2023-02-28T03:58:20;14.90;;;6.45;;
58756;SDS011;44527;47.460;19.016;2023-02-28T04:01:38;13.23;;;5.55;;
58756;SDS011;44527;47.460;19.016;2023-02-28T04:04:46;14.57;;;6.60;;
58756;SDS011;44527;47.460;19.016;2023-02-28T04:07:50;12.32;;;5.85;;
58756;SDS011;44527;47.460;19.016;2023-02-28T04:14:14;10.20;;;5.30;;
58756;SDS011;44527;47.460;19.016;2023-02-28T04:17:17;12.90;;;6.30;;
58756;SDS011;44527;47.460;19.016;2023-02-28T04:20:21;16.25;;;6.57;;
58756;SDS011;44527;47.460;19.016;2023-02-28T04:23:23;15.30;;;6.40;;
58756;SDS011;44527;47.460;19.016;2023-02-28T04:26:30;13.43;;;6.20;;
58756;SDS011;44527;47.460;19.016;2023-02-28T04:29:33;13.95;;;6.72;;
58756;SDS011;44527;47.460;19.016;2023-02-28T04:32:36;17.27;;;5.62;;
58756;SDS011;44527;47.460;19.016;2023-02-28T04:35:38;14.65;;;6.62;;
58756;SDS011;44527;47.460;19.016;2023-02-28T04:38:41;18.20;;;6.00;;
58756;SDS011;44527;47.460;19.016;2023-02-28T04:41:44;15.55;;;6.05;;
58756;SDS011;44527;47.460;19.016;2023-02-28T04:44:47;13.85;;;5.80;;
58756;SDS011;44527;47.460;19.016;2023-02-28T04:47:51;12.18;;;5.55;;
58756;SDS011;44527;47.460;19.016;2023-02-28T04:50:59;12.48;;;5.82;;
58756;SDS011;44527;47.460;19.016;2023-02-28T04:54:03;11.50;;;5.87;;
58756;SDS011;44527;47.460;19.016;2023-02-28T04:57:05;15.27;;;6.45;;
58756;SDS011;44527;47.460;19.016;2023-02-28T05:00:09;13.20;;;6.03;;
58756;SDS011;44527;47.460;19.016;2023-02-28T05:03:13;14.57;;;5.30;;
58756;SDS011;44527;47.460;19.016;2023-02-28T05:06:16;15.68;;;6.03;;
58756;SDS011;44527;47.460;19.016;2023-02-28T05:09:19;13.02;;;6.10;;
58756;SDS011;44527;47.460;19.016;2023-02-28T05:12:21;14.20;;;6.55;;
58756;SDS011;44527;47.460;19.016;2023-02-28T05:15:24;13.18;;;6.03;;
58756;SDS011;44527;47.460;19.016;2023-02-28T05:18:27;13.60;;;5.55;;
58756;SDS011;44527;47.460;19.016;2023-02-28T05:21:31;10.40;;;5.12;;
58756;SDS011;44527;47.460;19.016;2023-02-28T05:24:35;15.35;;;6.45;;
58756;SDS011;44527;47.460;19.016;2023-02-28T05:27:38;12.37;;;5.82;;
58756;SDS011;44527;47.460;19.016;2023-02-28T05:30:41;17.42;;;7.22;;
58756;SDS011;44527;47.460;19.016;2023-02-28T05:33:43;13.07;;;5.57;;
58756;SDS011;44527;47.460;19.016;2023-02-28T05:36:46;12.60;;;5.93;;
58756;SDS011;44527;47.460;19.016;2023-02-28T05:39:48;14.50;;;5.82;;
58756;SDS011;44527;47.460;19.016;2023-02-28T05:42:53;15.07;;;6.20;;
58756;SDS011;44527;47.460;19.016;2023-02-28T05:45:56;13.65;;;5.80;;
58756;SDS011;44527;47.460;19.016;2023-02-28T05:49:02;10.85;;;5.37;;
58756;SDS011;44527;47.460;19.016;2023-02-28T05:52:05;13.02;;;5.28;;
58756;SDS011;44527;47.460;19.016;2023-02-28T05:55:08;10.95;;;5.93;;
58756;SDS011;44527;47.460;19.016;2023-02-28T05:58:11;12.85;;;6.35;;
58756;SDS011;44527;47.460;19.016;2023-02-28T06:01:23;13.68;;;6.93;;
58756;SDS011;44527;47.460;19.016;2023-02-28T06:04:55;12.80;;;6.75;;
58756;SDS011;44527;47.460;19.016;2023-02-28T06:07:57;14.98;;;6.53;;
58756;SDS011;44527;47.460;19.016;2023-02-28T06:11:02;19.40;;;6.10;;
58756;SDS011;44527;47.460;19.016;2023-02-28T06:14:05;11.23;;;5.25;;
58756;SDS011;44527;47.460;19.016;2023-02-28T06:17:08;12.98;;;6.10;;
58756;SDS011;44527;47.460;19.016;2023-02-28T06:20:11;15.73;;;5.93;;
58756;SDS011;44527;47.460;19.016;2023-02-28T06:23:15;11.60;;;5.37;;
58756;SDS011;44527;47.460;19.016;2023-02-28T06:26:18;16.33;;;5.70;;
58756;SDS011;44527;47.460;19.016;2023-02-28T06:29:21;15.25;;;5.72;;
58756;SDS011;44527;47.460;19.016;2023-02-28T06:32:24;12.52;;;5.60;;
58756;SDS011;44527;47.460;19.016;2023-02-28T06:35:27;14.95;;;6.32;;
58756;SDS011;44527;47.460;19.016;2023-02-28T06:38:30;14.95;;;6.37;;
58756;SDS011;44527;47.460;19.016;2023-02-28T06:41:33;15.43;;;6.18;;
58756;SDS011;44527;47.460;19.016;2023-02-28T06:44:56;11.50;;;6.03;;
58756;SDS011;44527;47.460;19.016;2023-02-28T06:48:02;19.40;;;6.18;;
58756;SDS011;44527;47.460;19.016;2023-02-28T06:51:09;11.77;;;5.95;;
58756;SDS011;44527;47.460;19.016;2023-02-28T06:54:14;14.85;;;6.20;;
58756;SDS011;44527;47.460;19.016;2023-02-28T06:57:16;12.57;;;5.40;;
58756;SDS011;44527;47.460;19.016;2023-02-28T07:00:20;11.85;;;6.28;;
58756;SDS011;44527;47.460;19.016;2023-02-28T07:03:23;11.52;;;5.32;;
58756;SDS011;44527;47.460;19.016;2023-02-28T07:06:26;14.23;;;5.60;;
58756;SDS011;44527;47.460;19.016;2023-02-28T07:09:29;12.70;;;5.78;;
58756;SDS011;44527;47.460;19.016;2023-02-28T07:12:32;10.88;;;5.03;;
58756;SDS011;44527;47.460;19.016;2023-02-28T07:15:35;11.45;;;5.00;;
58756;SDS011;44527;47.460;19.016;2023-02-28T07:18:43;11.75;;;5.32;;
58756;SDS011;44527;47.460;19.016;2023-02-28T07:21:46;11.45;;;5.22;;
58756;SDS011;44527;47.460;19.016;2023-02-28T07:24:52;11.27;;;4.47;;
58756;SDS011;44527;47.460;19.016;2023-02-28T07:27:55;10.50;;;4.53;;
58756;SDS011;44527;47.460;19.016;2023-02-28T07:31:07;9.38;;;5.32;;
58756;SDS011;44527;47.460;19.016;2023-02-28T07:34:10;11.20;;;4.90;;
58756;SDS011;44527;47.460;19.016;2023-02-28T07:37:12;9.25;;;4.28;;
58756;SDS011;44527;47.460;19.016;2023-02-28T07:40:15;10.95;;;5.12;;
58756;SDS011;44527;47.460;19.016;2023-02-28T07:43:22;8.43;;;4.03;;
58756;SDS011;44527;47.460;19.016;2023-02-28T07:46:25;11.90;;;4.97;;
58756;SDS011;44527;47.460;19.016;2023-02-28T07:49:32;8.30;;;4.47;;
58756;SDS011;44527;47.460;19.016;2023-02-28T07:52:35;10.45;;;4.32;;
58756;SDS011;44527;47.460;19.016;2023-02-28T07:55:39;11.23;;;4.80;;
58756;SDS011;44527;47.460;19.016;2023-02-28T07:58:42;12.70;;;5.45;;
58756;SDS011;44527;47.460;19.016;2023-02-28T08:01:45;9.57;;;3.92;;
58756;SDS011;44527;47.460;19.016;2023-02-28T08:04:48;8.55;;;4.57;;
58756;SDS011;44527;47.460;19.016;2023-02-28T08:07:54;8.90;;;4.35;;
58756;SDS011;44527;47.460;19.016;2023-02-28T08:11:00;9.43;;;4.00;;
58756;SDS011;44527;47.460;19.016;2023-02-28T08:14:04;9.52;;;3.95;;
58756;SDS011;44527;47.460;19.016;2023-02-28T08:17:08;7.45;;;3.87;;
58756;SDS011;44527;47.460;19.016;2023-02-28T08:20:11;7.12;;;4.30;;
58756;SDS011;44527;47.460;19.016;2023-02-28T08:23:15;11.23;;;4.70;;
58756;SDS011;44527;47.460;19.016;2023-02-28T08:26:17;14.02;;;4.95;;
58756;SDS011;44527;47.460;19.016;2023-02-28T08:29:21;8.63;;;3.95;;
58756;SDS011;44527;47.460;19.016;2023-02-28T08:32:23;11.07;;;5.55;;
58756;SDS011;44527;47.460;19.016;2023-02-28T08:35:31;10.35;;;5.15;;
58756;SDS011;44527;47.460;19.016;2023-02-28T08:38:34;9.35;;;4.97;;
58756;SDS011;44527;47.460;19.016;2023-02-28T08:41:38;15.52;;;5.00;;
58756;SDS011;44527;47.460;19.016;2023-02-28T08:44:40;11.80;;;4.90;;
58756;SDS011;44527;47.460;19.016;2023-02-28T08:47:43;8.85;;;4.47;;
58756;SDS011;44527;47.460;19.016;2023-02-28T08:54:20;14.40;;;5.25;;
58756;SDS011;44527;47.460;19.016;2023-02-28T08:57:23;10.18;;;4.68;;
58756;SDS011;44527;47.460;19.016;2023-02-28T09:00:28;13.13;;;4.93;;
58756;SDS011;44527;47.460;19.016;2023-02-28T09:03:32;14.27;;;5.07;;
58756;SDS011;44527;47.460;19.016;2023-02-28T09:06:35;9.88;;;4.40;;
58756;SDS011;44527;47.460;19.016;2023-02-28T09:09:37;10.30;;;4.57;;
58756;SDS011;44527;47.460;19.016;2023-02-28T09:13:00;9.45;;;4.72;;
58756;SDS011;44527;47.460;19.016;2023-02-28T09:16:03;10.43;;;5.00;;
58756;SDS011;44527;47.460;19.016;2023-02-28T09:19:12;9.02;;;4.57;;
58756;SDS011;44527;47.460;19.016;2023-02-28T09:22:15;10.55;;;4.43;;
58756;SDS011;44527;47.460;19.016;2023-02-28T09:25:19;11.70;;;4.85;;
58756;SDS011;44527;47.460;19.016;2023-02-28T09:28:21;11.00;;;4.50;;
58756;SDS011;44527;47.460;19.016;2023-02-28T09:31:26;15.27;;;5.37;;
58756;SDS011;44527;47.460;19.016;2023-02-28T09:34:32;10.80;;;5.10;;
58756;SDS011;44527;47.460;19.016;2023-02-28T09:37:34;9.77;;;4.95;;
58756;SDS011;44527;47.460;19.016;2023-02-28T09:40:38;13.95;;;5.03;;
58756;SDS011;44527;47.460;19.016;2023-02-28T09:43:53;8.48;;;4.53;;
58756;SDS011;44527;47.460;19.016;2023-02-28T09:47:00;9.73;;;4.18;;
58756;SDS011;44527;47.460;19.016;2023-02-28T09:53:29;7.45;;;4.15;;
58756;SDS011;44527;47.460;19.016;2023-02-28T09:56:37;23.55;;;4.85;;
58756;SDS011;44527;47.460;19.016;2023-02-28T10:03:28;11.12;;;5.28;;
58756;SDS011;44527;47.460;19.016;2023-02-28T10:06:39;9.38;;;5.00;;
58756;SDS011;44527;47.460;19.016;2023-02-28T10:09:49;11.70;;;4.53;;
58756;SDS011;44527;47.460;19.016;2023-02-28T10:12:57;10.15;;;4.62;;
58756;SDS011;44527;47.460;19.016;2023-02-28T10:16:06;18.77;;;5.50;;
58756;SDS011;44527;47.460;19.016;2023-02-28T10:19:16;11.07;;;5.28;;
58756;SDS011;44527;47.460;19.016;2023-02-28T10:25:27;9.98;;;4.87;;
58756;SDS011;44527;47.460;19.016;2023-02-28T10:28:31;9.45;;;4.87;;
58756;SDS011;44527;47.460;19.016;2023-02-28T10:31:34;8.60;;;4.72;;
58756;SDS011;44527;47.460;19.016;2023-02-28T10:34:37;9.93;;;4.50;;
58756;SDS011;44527;47.460;19.016;2023-02-28T10:37:40;9.32;;;4.47;;
58756;SDS011;44527;47.460;19.016;2023-02-28T10:40:46;8.95;;;4.53;;
58756;SDS011;44527;47.460;19.016;2023-02-28T10:43:49;10.02;;;4.47;;
58756;SDS011;44527;47.460;19.016;2023-02-28T10:46:55;11.70;;;4.37;;
58756;SDS011;44527;47.460;19.016;2023-02-28T10:49:59;13.85;;;4.65;;
58756;SDS011;44527;47.460;19.016;2023-02-28T10:56:28;9.15;;;4.12;;
58756;SDS011;44527;47.460;19.016;2023-02-28T10:59:32;8.32;;;4.45;;
58756;SDS011;44527;47.460;19.016;2023-02-28T11:02:36;12.27;;;4.22;;
58756;SDS011;44527;47.460;19.016;2023-02-28T11:05:44;8.60;;;4.45;;
58756;SDS011;44527;47.460;19.016;2023-02-28T11:08:53;13.48;;;5.10;;
58756;SDS011;44527;47.460;19.016;2023-02-28T11:11:57;9.23;;;4.00;;
58756;SDS011;44527;47.460;19.016;2023-02-28T11:15:01;11.18;;;4.43;;
58756;SDS011;44527;47.460;19.016;2023-02-28T11:24:41;8.18;;;4.65;;
58756;SDS011;44527;47.460;19.016;2023-02-28T11:27:47;8.95;;;4.32;;
58756;SDS011;44527;47.460;19.016;2023-02-28T11:31:01;9.73;;;4.68;;
58756;SDS011;44527;47.460;19.016;2023-02-28T11:34:24;9.10;;;4.43;;
58756;SDS011;44527;47.460;19.016;2023-02-28T11:37:29;13.40;;;5.25;;
58756;SDS011;44527;47.460;19.016;2023-02-28T11:40:40;8.85;;;4.85;;
58756;SDS011;44527;47.460;19.016;2023-02-28T11:50:51;10.75;;;4.82;;
58756;SDS011;44527;47.460;19.016;2023-02-28T12:03:58;9.00;;;4.50;;
58756;SDS011;44527;47.460;19.016;2023-02-28T12:07:34;11.15;;;5.30;;
58756;SDS011;44527;47.460;19.016;2023-02-28T12:17:58;9.48;;;4.75;;
58756;SDS011;44527;47.460;19.016;2023-02-28T12:27:56;13.45;;;5.90;;
58756;SDS011;44527;47.460;19.016;2023-02-28T12:31:01;16.20;;;4.97;;
58756;SDS011;44527;47.460;19.016;2023-02-28T12:34:41;7.87;;;4.65;;
58756;SDS011;44527;47.460;19.016;2023-02-28T12:37:50;14.40;;;5.72;;
58756;SDS011;44527;47.460;19.016;2023-02-28T12:41:00;13.50;;;5.95;;
58756;SDS011;44527;47.460;19.016;2023-02-28T12:44:12;10.23;;;5.50;;
58756;SDS011;44527;47.460;19.016;2023-02-28T12:47:21;17.08;;;4.53;;
58756;SDS011;44527;47.460;19.016;2023-02-28T12:50:24;9.40;;;4.55;;
58756;SDS011;44527;47.460;19.016;2023-02-28T12:53:31;11.38;;;3.85;;
58756;SDS011;44527;47.460;19.016;2023-02-28T13:04:45;10.43;;;4.15;;
58756;SDS011;44527;47.460;19.016;2023-02-28T13:11:39;9.68;;;4.57;;
58756;SDS011;44527;47.460;19.016;2023-02-28T13:14:44;10.05;;;4.68;;
58756;SDS011;44527;47.460;19.016;2023-02-28T13:17:48;7.03;;;4.28;;
58756;SDS011;44527;47.460;19.016;2023-02-28T13:20:52;11.48;;;5.07;;
58756;SDS011;44527;47.460;19.016;2023-02-28T13:23:57;12.20;;;5.20;;
58756;SDS011;44527;47.460;19.016;2023-02-28T13:40:27;9.52;;;4.15;;
58756;SDS011;44527;47.460;19.016;2023-02-28T13:47:22;12.23;;;4.90;;
58756;SDS011;44527;47.460;19.016;2023-02-28T13:53:46;6.37;;;3.42;;
58756;SDS011;44527;47.460;19.016;2023-02-28T14:07:48;9.30;;;4.20;;
58756;SDS011;44527;47.460;19.016;2023-02-28T14:11:03;8.52;;;3.60;;
58756;SDS011;44527;47.460;19.016;2023-02-28T14:14:08;8.85;;;4.03;;
58756;SDS011;44527;47.460;19.016;2023-02-28T14:17:32;9.48;;;3.90;;
58756;SDS011;44527;47.460;19.016;2023-02-28T14:20:36;7.62;;;3.40;;
58756;SDS011;44527;47.460;19.016;2023-02-28T14:37:37;7.07;;;3.60;;
58756;SDS011;44527;47.460;19.016;2023-02-28T14:40:41;13.68;;;4.00;;
58756;SDS011;44527;47.460;19.016;2023-02-28T14:43:48;9.27;;;3.42;;
58756;SDS011;44527;47.460;19.016;2023-02-28T14:47:00;10.88;;;4.00;;
58756;SDS011;44527;47.460;19.016;2023-02-28T14:50:17;7.60;;;3.90;;
58756;SDS011;44527;47.460;19.016;2023-02-28T14:53:22;7.62;;;3.90;;
58756;SDS011;44527;47.460;19.016;2023-02-28T14:56:37;7.60;;;3.78;;
58756;SDS011;44527;47.460;19.016;2023-02-28T14:59:40;9.30;;;3.70;;
58756;SDS011;44527;47.460;19.016;2023-02-28T15:02:43;7.07;;;3.60;;
58756;SDS011;44527;47.460;19.016;2023-02-28T15:05:55;9.65;;;3.80;;
58756;SDS011;44527;47.460;19.016;2023-02-28T15:09:15;7.78;;;4.55;;
58756;SDS011;44527;47.460;19.016;2023-02-28T15:12:20;7.57;;;3.92;;
58756;SDS011;44527;47.460;19.016;2023-02-28T15:15:27;12.50;;;4.50;;
58756;SDS011;44527;47.460;19.016;2023-02-28T15:19:13;10.20;;;4.53;;
58756;SDS011;44527;47.460;19.016;2023-02-28T15:22:31;8.02;;;4.03;;
58756;SDS011;44527;47.460;19.016;2023-02-28T15:25:39;16.02;;;4.20;;
58756;SDS011;44527;47.460;19.016;2023-02-28T15:28:43;8.35;;;4.00;;
58756;SDS011;44527;47.460;19.016;2023-02-28T15:31:49;10.18;;;4.22;;
58756;SDS011;44527;47.460;19.016;2023-02-28T15:34:59;9.73;;;4.18;;
58756;SDS011;44527;47.460;19.016;2023-02-28T15:38:28;9.43;;;4.43;;
58756;SDS011;44527;47.460;19.016;2023-02-28T15:41:36;12.82;;;4.55;;
58756;SDS011;44527;47.460;19.016;2023-02-28T15:44:42;12.63;;;5.78;;
58756;SDS011;44527;47.460;19.016;2023-02-28T15:47:45;16.17;;;5.43;;
58756;SDS011;44527;47.460;19.016;2023-02-28T15:50:49;9.98;;;5.15;;
58756;SDS011;44527;47.460;19.016;2023-02-28T15:57:05;22.02;;;5.68;;
58756;SDS011;44527;47.460;19.016;2023-02-28T16:00:13;10.00;;;5.20;;
58756;SDS011;44527;47.460;19.016;2023-02-28T16:03:25;11.40;;;5.50;;
58756;SDS011;44527;47.460;19.016;2023-02-28T16:06:40;17.95;;;5.50;;
58756;SDS011;44527;47.460;19.016;2023-02-28T16:10:02;14.43;;;5.57;;
58756;SDS011;44527;47.460;19.016;2023-02-28T16:13:06;12.68;;;5.72;;
58756;SDS011;44527;47.460;19.016;2023-02-28T16:16:14;18.15;;;5.62;;
58756;SDS011;44527;47.460;19.016;2023-02-28T16:19:22;9.57;;;5.00;;
58756;SDS011;44527;47.460;19.016;2023-02-28T16:22:26;25.42;;;5.85;;
58756;SDS011;44527;47.460;19.016;2023-02-28T16:25:33;15.73;;;5.43;;
58756;SDS011;44527;47.460;19.016;2023-02-28T16:28:37;10.43;;;5.72;;
58756;SDS011;44527;47.460;19.016;2023-02-28T16:31:40;18.45;;;6.85;;
58756;SDS011;44527;47.460;19.016;2023-02-28T16:34:43;14.50;;;6.57;;
58756;SDS011;44527;47.460;19.016;2023-02-28T16:37:46;14.05;;;6.30;;
58756;SDS011;44527;47.460;19.016;2023-02-28T16:40:50;25.02;;;6.85;;
58756;SDS011;44527;47.460;19.016;2023-02-28T16:43:56;12.90;;;5.43;;
58756;SDS011;44527;47.460;19.016;2023-02-28T16:47:03;18.37;;;7.93;;
58756;SDS011;44527;47.460;19.016;2023-02-28T16:50:17;12.50;;;6.32;;
58756;SDS011;44527;47.460;19.016;2023-02-28T16:53:21;23.77;;;8.10;;
58756;SDS011;44527;47.460;19.016;2023-02-28T16:56:24;19.02;;;10.40;;
58756;SDS011;44527;47.460;19.016;2023-02-28T16:59:27;13.50;;;6.05;;
58756;SDS011;44527;47.460;19.016;2023-02-28T17:02:30;12.63;;;5.32;;
58756;SDS011;44527;47.460;19.016;2023-02-28T17:05:34;12.37;;;6.03;;
58756;SDS011;44527;47.460;19.016;2023-02-28T17:08:40;13.93;;;6.28;;
58756;SDS011;44527;47.460;19.016;2023-02-28T17:11:43;10.10;;;5.78;;
58756;SDS011;44527;47.460;19.016;2023-02-28T17:14:46;19.95;;;9.35;;
58756;SDS011;44527;47.460;19.016;2023-02-28T17:17:49;12.88;;;7.20;;
58756;SDS011;44527;47.460;19.016;2023-02-28T17:20:51;18.27;;;6.85;;
58756;SDS011;44527;47.460;19.016;2023-02-28T17:23:54;19.67;;;6.95;;
58756;SDS011;44527;47.460;19.016;2023-02-28T17:26:58;19.10;;;7.12;;
58756;SDS011;44527;47.460;19.016;2023-02-28T17:30:01;17.70;;;7.15;;
58756;SDS011;44527;47.460;19.016;2023-02-28T17:33:05;16.52;;;7.57;;
58756;SDS011;44527;47.460;19.016;2023-02-28T17:36:18;12.43;;;6.47;;
58756;SDS011;44527;47.460;19.016;2023-02-28T17:39:26;14.70;;;6.62;;
58756;SDS011;44527;47.460;19.016;2023-02-28T17:42:29;13.45;;;7.15;;
58756;SDS011;44527;47.460;19.016;2023-02-28T17:45:31;12.55;;;7.55;;
58756;SDS011;44527;47.460;19.016;2023-02-28T17:48:34;14.27;;;6.57;;
58756;SDS011;44527;47.460;19.016;2023-02-28T17:51:38;19.15;;;7.37;;
58756;SDS011;44527;47.460;19.016;2023-02-28T17:54:41;16.48;;;6.37;;
58756;SDS011;44527;47.460;19.016;2023-02-28T17:57:45;13.93;;;6.72;;
58756;SDS011;44527;47.460;19.016;2023-02-28T18:00:49;14.87;;;6.62;;
58756;SDS011;44527;47.460;19.016;2023-02-28T18:03:56;13.07;;;6.70;;
58756;SDS011;44527;47.460;19.016;2023-02-28T18:06:58;12.80;;;6.07;;
58756;SDS011;44527;47.460;19.016;2023-02-28T18:10:02;16.48;;;6.47;;
58756;SDS011;44527;47.460;19.016;2023-02-28T18:13:05;13.15;;;6.78;;
58756;SDS011;44527;47.460;19.016;2023-02-28T18:16:08;12.60;;;6.15;;
58756;SDS011;44527;47.460;19.016;2023-02-28T18:19:11;12.52;;;6.00;;
58756;SDS011;44527;47.460;19.016;2023-02-28T18:22:18;16.77;;;6.65;;
58756;SDS011;44527;47.460;19.016;2023-02-28T18:25:21;13.57;;;6.85;;
58756;SDS011;44527;47.460;19.016;2023-02-28T18:28:24;19.52;;;7.32;;
58756;SDS011;44527;47.460;19.016;2023-02-28T18:31:26;15.30;;;7.20;;
58756;SDS011;44527;47.460;19.016;2023-02-28T18:34:29;15.07;;;7.32;;
58756;SDS011;44527;47.460;19.016;2023-02-28T18:37:31;16.73;;;8.18;;
58756;SDS011;44527;47.460;19.016;2023-02-28T18:40:34;14.55;;;6.78;;
58756;SDS011;44527;47.460;19.016;2023-02-28T18:43:37;12.15;;;6.80;;
58756;SDS011;44527;47.460;19.016;2023-02-28T18:46:40;16.90;;;7.45;;
58756;SDS011;44527;47.460;19.016;2023-02-28T18:49:43;12.85;;;6.62;;
58756;SDS011;44527;47.460;19.016;2023-02-28T18:52:46;14.40;;;7.03;;
58756;SDS011;44527;47.460;19.016;2023-02-28T18:55:48;14.87;;;7.40;;
58756;SDS011;44527;47.460;19.016;2023-02-28T18:58:51;18.67;;;7.43;;
58756;SDS011;44527;47.460;19.016;2023-02-28T19:01:54;14.85;;;8.00;;
58756;SDS011;44527;47.460;19.016;2023-02-28T19:04:57;17.25;;;8.05;;
58756;SDS011;44527;47.460;19.016;2023-02-28T19:08:00;15.43;;;7.93;;
58756;SDS011;44527;47.460;19.016;2023-02-28T19:11:10;16.25;;;8.43;;
58756;SDS011;44527;47.460;19.016;2023-02-28T19:14:15;17.10;;;9.00;;
58756;SDS011;44527;47.460;19.016;2023-02-28T19:17:18;23.30;;;10.30;;
58756;SDS011;44527;47.460;19.016;2023-02-28T19:20:21;21.23;;;10.40;;
58756;SDS011;44527;47.460;19.016;2023-02-28T19:23:25;20.85;;;10.52;;
58756;SDS011;44527;47.460;19.016;2023-02-28T19:26:28;21.05;;;9.82;;
58756;SDS011;44527;47.460;19.016;2023-02-28T19:29:31;16.95;;;8.93;;
58756;SDS011;44527;47.460;19.016;2023-02-28T19:32:33;14.85;;;8.48;;
58756;SDS011;44527;47.460;19.016;2023-02-28T19:35:38;18.02;;;9.18;;
58756;SDS011;44527;47.460;19.016;2023-02-28T19:38:42;18.10;;;9.00;;
58756;SDS011;44527;47.460;19.016;2023-02-28T19:41:46;17.35;;;9.27;;
58756;SDS011;44527;47.460;19.016;2023-02-28T19:44:48;22.73;;;8.98;;
58756;SDS011;44527;47.460;19.016;2023-02-28T19:47:51;17.98;;;8.18;;
58756;SDS011;44527;47.460;19.016;2023-02-28T19:51:07;16.42;;;8.80;;
58756;SDS011;44527;47.460;19.016;2023-02-28T19:54:11;18.92;;;8.75;;
58756;SDS011;44527;47.460;19.016;2023-02-28T19:57:14;19.50;;;9.18;;
58756;SDS011;44527;47.460;19.016;2023-02-28T20:00:17;19.90;;;10.25;;
58756;SDS011;44527;47.460;19.016;2023-02-28T20:03:20;18.00;;;8.48;;
58756;SDS011;44527;47.460;19.016;2023-02-28T20:06:23;17.85;;;9.02;;
58756;SDS011;44527;47.460;19.016;2023-02-28T20:09:29;16.67;;;8.43;;
58756;SDS011;44527;47.460;19.016;2023-02-28T20:12:33;25.70;;;9.55;;
58756;SDS011;44527;47.460;19.016;2023-02-28T20:15:36;18.20;;;9.07;;
58756;SDS011;44527;47.460;19.016;2023-02-28T20:18:38;22.58;;;10.02;;
58756;SDS011;44527;47.460;19.016;2023-02-28T20:21:42;22.73;;;8.80;;
58756;SDS011;44527;47.460;19.016;2023-02-28T20:24:46;20.73;;;9.50;;
58756;SDS011;44527;47.460;19.016;2023-02-28T20:27:49;19.95;;;9.73;;
58756;SDS011;44527;47.460;19.016;2023-02-28T20:30:51;20.55;;;9.13;;
58756;SDS011;44527;47.460;19.016;2023-02-28T20:33:55;18.48;;;9.52;;
58756;SDS011;44527;47.460;19.016;2023-02-28T20:36:57;17.02;;;8.75;;